• Join FlightAware (Why Join?)
  • Login
  • US Flag 
12:54AM EDT


 

Airport Tracker/Info


-or-


 

Live Flight TrackerFlight Track Log ✈ N547ER ✈ 30-Jul-2013 ✈ KPRC - KFLG

Flight Track Log - Related Links

Times and Time Zones

All times are in EDT time to prevent confusion due to time zone crossing. See the N547ER flight status page for this flight to view local times or setup timezone preferences in your user account.

Time Position Orientation Groundspeed Altitude Reporting Facility
EDT Latitude Longitude Course Direction KTS MPH feet Rate Location/Type
10:56PM 34.6406 -112.4358 76° East 68 78 5,600  Level Albuquerque Center
10:57PM 34.6583 -112.4511 325° Northwest 66 76 6,200 480 Climbing Albuquerque Center
10:58PM 34.6786 -112.4644 332° Northwest 78 90 6,700 480 Climbing Albuquerque Center
10:59PM 34.6978 -112.4722 342° North 74 85 7,200 420 Climbing Albuquerque Center
11:00PM 34.7053 -112.4422 73° East 91 105 7,600 420 Climbing Albuquerque Center
11:01PM 34.7233 -112.3336 76° East  Level FlightAware Approximate
11:01PM 34.7131 -112.4136 72° East 89 102 8,100  Level Albuquerque Center
11:02PM 34.7217 -112.3856 70° East 89 102 8,400 300 Climbing Albuquerque Center
11:03PM 34.7300 -112.3525 73° East 90 104 8,800 360 Climbing Albuquerque Center
11:04PM 34.7358 -112.3231 76° East 90 104 9,200 360 Climbing Albuquerque Center
11:05PM 34.7422 -112.2939 75° East 89 102 9,600 360 Climbing Albuquerque Center
11:06PM 34.7481 -112.2636 77° East 91 105 10,000 240 Climbing Albuquerque Center
11:07PM 34.7556 -112.2353 72° East 90 104 10,200 240 Climbing Albuquerque Center
11:08PM 34.7631 -112.2053 73° East 92 106 10,500 240 Climbing Albuquerque Center
11:09PM 34.7692 -112.1753 76° East 92 106 10,800 180 Climbing Albuquerque Center
11:10PM 34.7767 -112.1414 75° East 96 110 10,900  Climbing Albuquerque Center
11:11PM 34.7858 -112.0978 76° East 105 121 10,800 -60 Descending Albuquerque Center
11:12PM 34.7931 -112.0639 75° East 106 122 10,800  Level Albuquerque Center
11:13PM 34.8111 -112.0333 54° Northeast 121 139 10,800  Level Albuquerque Center
11:14PM 34.8328 -112.0072 45° Northeast 116 133 10,800  Level Albuquerque Center
11:15PM 34.8319 -111.9725 92° East 114 131 10,900  Climbing Albuquerque Center
11:16PM 34.8256 -111.9347 102° East 114 131 10,800 -60 Descending Albuquerque Center
11:17PM 34.8214 -111.8967 98° East 114 131 10,800  Level Albuquerque Center
11:18PM 34.8433 -111.8686 46° Northeast 122 140 10,900  Climbing Albuquerque Center
11:19PM 34.8728 -111.8628 North 110 127 10,900 -60 Level Albuquerque Center
11:20PM 34.9044 -111.8514 16° North 116 133 10,800 -60 Descending Albuquerque Center
11:21PM 34.9361 -111.8433 12° North 118 136 10,800  Level Albuquerque Center
11:22PM 34.9675 -111.8344 13° North 117 135 10,800  Level Albuquerque Center
11:23PM 34.9986 -111.8244 15° North 116 133 10,900  Climbing Albuquerque Center
11:24PM 34.9883 -111.8000 117° Southeast 106 122 10,900  Level Albuquerque Center
11:25PM 34.9614 -111.8275 220° Southwest 103 119 10,900 -60 Level Albuquerque Center
11:26PM 34.9381 -111.8506 219° Southwest 107 123 10,800 -60 Descending Albuquerque Center
11:27PM 34.9181 -111.8725 222° Southwest 103 119 10,800 -60 Level Albuquerque Center
11:28PM 34.8933 -111.8928 214° Southwest 105 121 10,700 -120 Descending Albuquerque Center
11:29PM 34.8881 -111.9225 258° West 118 136 10,600 -300 Descending Albuquerque Center
11:30PM 34.9131 -111.9092 24° Northeast 111 128 10,200 -360 Descending Albuquerque Center
11:31PM 34.9358 -111.8836 43° Northeast 112 129 9,900 -180 Descending Albuquerque Center
11:32PM 34.9619 -111.8594 37° Northeast 117 135 9,900  Level Albuquerque Center
11:33PM 34.9906 -111.8292 41° Northeast 116 133 9,900 -300 Level Albuquerque Center
11:34PM 35.0119 -111.8000 48° Northeast 115 132 9,400 -540 Descending Albuquerque Center
11:35PM 35.0386 -111.7761 36° Northeast 117 135 8,900 -480 Descending Albuquerque Center
11:36PM 35.0639 -111.7533 36° Northeast 116 133 8,500 -300 Descending Albuquerque Center
11:38PM 35.0878 -111.7294 39° Northeast 116 133 8,400  Descending Albuquerque Center
11:40PM 35.1172 -111.6888 48° Northeast  Level FlightAware Approximate
11:44PM 35.1642 -111.5889 39° Northeast 67 77 8,600  Level Albuquerque Center
11:45PM 35.1572 -111.5567 105° East 94 108 8,900 300 Climbing Albuquerque Center
11:46PM 35.1511 -111.5261 104° East 94 108 9,300 300 Climbing Albuquerque Center
11:47PM 35.1333 -111.6667 39° Northeast  Level FlightAware Approximate
11:47PM 35.1519 -111.4950 88° East 99 114 9,600  Level Albuquerque Center
11:48PM 35.1403 -111.6693 39° Northeast  Level Estimated
11:48PM 35.1750 -111.4778 31° Northeast 99 114 10,000  Level Albuquerque Center
11:49PM 35.1403 -111.6693 39° Northeast  Level Estimated
11:49PM 35.2006 -111.4550 36° Northeast 95 109 10,400  Level Albuquerque Center
11:50PM 35.2206 -111.4364 37° Northeast 93 107 10,700 240 Climbing Albuquerque Center
11:51PM 35.2406 -111.4181 37° Northeast 91 105 11,000 180 Climbing Albuquerque Center
11:52PM 35.2672 -111.4117 11° North 110 127 11,100 -60 Climbing Albuquerque Center
11:53PM 35.2761 -111.4478 287° West 113 130 10,900 -300 Descending Albuquerque Center
11:54PM 35.2825 -111.4856 282° West 114 131 10,500 -300 Descending Albuquerque Center
11:55PM 35.2719 -111.5136 245° Southwest 109 125 10,300 -300 Descending Albuquerque Center
11:56PM 35.2500 -111.5369 221° Southwest 105 121 10,000 -540 Descending Albuquerque Center
11:57PM 35.2319 -111.5592 225° Southwest 96 110 9,300 -660 Descending Albuquerque Center
11:58PM 35.2125 -111.5847 227° Southwest 88 101 8,700 -300 Descending Albuquerque Center
11:59PM 35.1967 -111.6058 227° Southwest 88 101 8,700  Level Albuquerque Center